KDAA/DAA METAR and TAF weather

Enter ICAO airport designator
Station Type Date Time Source
KDAA METAR 2019/02/23 16:56 UTC NOAA

KDAA 231656Z AUTO 08003KT 10SM -RA SCT043 BKN060 04/01 A3042 RMK AO2 SLP305 P0000 T00430010


Station Type Date Time Source
KDAA Decoded METAR 2019/02/23 16:56 UTC NOAA

Fort Belvoir, VA, United States (KDAA) 38-43N 077-11W
Feb 23, 2019 - 11:56 AM EST / 2019.02.23 1656 UTC
Wind: from the E (080 degrees) at 3 MPH (3 KT):0
Visibility: 10 mile(s):0
Sky conditions: mostly cloudy
Weather: light rain
Precipitation last hour: A trace
Temperature: 39.7 F (4.3 C)
Dew Point: 33.8 F (1.0 C)
Relative Humidity: 79%
Pressure (altimeter): 30.42 in. Hg (1030 hPa)
ob: KDAA 231656Z AUTO 08003KT 10SM -RA SCT043 BKN060 04/01 A3042 RMK AO2 SLP305 P0000 T00430010
cycle: 17

Station Type Date Time Source
KDAA TAF 2019/02/23 02:12 UTC NOAA

TAF TAF KDAA 230200Z 2302/2408 04006KT 9999 SCT180 BKN200 QNH3040INS
BECMG 2314/2315 09009KT 9999 FEW015 BKN100 QNH3038INS
BECMG 2317/2318 12012KT 8000 -RA SCT015 BKN035 OVC070 620806 QNH3029INS
BECMG 2320/2321 VRB06KT 4800 -RA BR OVC007 620909 QNH2991INS TX09/2319Z TNM01/2310Z LAST NO
AMDS AFT 2302 NEXT 2510


Example: see airport list